Laramie, Wyoming
Current Conditions -  °F | °C
As of 11:53 AM on Saturday 25 Oct 2014 (Local Time) from KLAR Reporting Station
Clear Clear  
Wind Chill: 68°   Ceiling: Unl
Heat Index: 68°   Visibility: 10mi
Dew Point: 21°   Wind: 17mph
Humidity: 17%   Direction: 250°WSW
Pressure: 30.27"   Gusts: NA
Location:  41.31°N, 105.59°W
Report Text: KLAR 251753Z AUTO 25015KT 10SM CLR 20/M06 A3027 RMK AO2 SLP160 T02001061 10200 20000 57018
Loading
Personal Weather Stations






























Interactive Weather Map New forecast layout! Learn more

10-Day Weather Forecast

Advertisements
Track Severe Weather on mobile